Theodore Francis Green State Airport
KPVD : now visible

Airfield :











YOU CAN JOIN US ON...

 
LOGIN :

Register | Disclaimer

   EN    FR    IT 

 









Legend :    VFR   Marginal VFR   IFR   Intensive IFR   Very Intensive IFR
Visi :
Ceiling :
>= 8 km
>= 3000ft
5 to 8 km
1000 to 3000 ft
1500m to 5 km
500 to 1000 ft
800 to 1500m
200 to 500 ft
< 800m
< 200 ft
Symbols :   Thunderstorms  Fog  Heavy snow  Heavy precipitations  Wind > 20 kt






- Airport Elevation : 55 ft
- IATA code : PVD


KPVD - Theodore Francis Green State

CURRENT METAR :
  • 290651Z AUTO 00000KT 8SM CLR 08/08 A2996 RMK AO2 SLP144 T00830078

EXPIRED METARs :
  • 290551Z AUTO 32004KT 10SM CLR 08/08 A2996 RMK AO2 SLP145 T00830078 10106 20083 56003
  • 290516Z AUTO 00000KT 10SM SCT004 09/08 A2996 RMK AO2 T00890083
  • 290451Z AUTO 30005KT 9SM OVC003 09/08 A2997 RMK AO2 SLP147 T00890083 401110072

TAF KPVD
Valid from the 29 at 06:00 until the 30 at 06:00 UTC


290537Z 2906/3006 30003KT P6SM SCT003 BKN250
TEMPO 2906/2908 BKN003
FM291400 00000KT P6SM VCSH OVC060
FM291500 07003KT P6SM -RA OVC025
FM291700 07003KT 3SM -RA BR OVC010
FM292000 05007KT 2SM -RA BR OVC003
FM292300 03011G20KT 2SM -RA BR OVC003
FM300100 03015G23KT 2SM -RA BR OVC008
KZBW FIR / North America



MET'MAP, your aeronautical weather chart ! - Copyright ORBIFLY December 2007 - Disclaimer

ORBIFLY MET'MAP TEAM :

Programming & Development : Alexandra Zaïnal
Concept & original design : Baudouin d'Aumeries
Assistance for programming : Marc-Olivier Méhu
Technical & hardware support : Manuel Goepfert

Contact : metmap@orbifly.com




SOURCES & CREDITS :

   NOAA       Earth
Advisory